Time;durP1;ratioP1;P1;durP2;ratioP2;P2;SDS_P1;SDS_P2;PMS_P1;PMS_P2;Temp;Humidity;BMP_temperature;BMP_pressure;BME280_temperature;BME280_humidity;BME280_pressure;Samples;Min_cycle;Max_cycle;Signal;HPM_P1;HPM_P2
2021/09/11 00:01:43;;;;;;;4.95;1.90;;;;;;;23.68;59.68;101229.00;4952590;28;20040;-68
2021/09/11 00:04:11;;;;;;;5.72;2.45;;;;;;;23.68;59.59;101233.50;4952373;28;20049;-68
2021/09/11 00:06:38;;;;;;;5.07;2.05;;;;;;;23.64;59.71;101227.28;4951533;28;20035;-69
2021/09/11 00:09:08;;;;;;;4.78;2.00;;;;;;;23.58;59.92;101226.59;4952101;28;20058;-68
2021/09/11 00:11:35;;;;;;;5.65;1.73;;;;;;;23.57;60.09;101223.03;4953263;28;20059;-69
2021/09/11 00:14:03;;;;;;;6.50;2.20;;;;;;;23.56;60.17;101213.19;4952347;28;20043;-68
2021/09/11 00:16:30;;;;;;;6.72;1.90;;;;;;;23.53;60.10;101215.97;4952900;28;20052;-68
2021/09/11 00:18:58;;;;;;;3.78;1.83;;;;;;;23.56;60.10;101215.91;4951651;28;20400;-68
2021/09/11 00:21:26;;;;;;;7.38;2.25;;;;;;;23.57;60.13;101220.31;4951841;28;20226;-68
2021/09/11 00:23:54;;;;;;;2.60;1.77;;;;;;;23.53;60.23;101212.38;4952564;28;20448;-68
2021/09/11 00:26:23;;;;;;;5.38;2.10;;;;;;;23.52;60.22;101210.63;4952424;28;20039;-68
2021/09/11 00:28:51;;;;;;;8.07;2.42;;;;;;;23.53;60.25;101204.31;4947192;28;20518;-68
2021/09/11 00:31:19;;;;;;;3.95;2.03;;;;;;;23.50;60.20;101202.56;4951995;28;20047;-69
2021/09/11 00:33:46;;;;;;;5.78;2.10;;;;;;;23.50;60.21;101202.56;4933433;28;20416;-68
2021/09/11 00:36:13;;;;;;;3.30;2.10;;;;;;;23.45;60.32;101197.28;4949334;28;20042;-69
2021/09/11 00:38:41;;;;;;;5.50;1.92;;;;;;;23.44;60.40;101192.84;4951796;28;20077;-68
2021/09/11 00:41:08;;;;;;;4.97;2.20;;;;;;;23.45;60.32;101196.41;4951401;28;20104;-68
2021/09/11 00:43:46;;;;;;;3.58;2.30;;;;;;;23.43;60.37;101195.59;4952090;28;20043;-68
2021/09/11 00:46:13;;;;;;;4.78;2.28;;;;;;;23.38;60.49;101192.13;4952294;28;20044;-68
2021/09/11 00:48:41;;;;;;;5.78;2.40;;;;;;;23.36;60.59;101200.28;4952365;28;20050;-68
2021/09/11 00:51:08;;;;;;;3.05;1.90;;;;;;;23.35;60.45;101203.03;4951847;28;20048;-68
2021/09/11 00:53:36;;;;;;;4.15;1.90;;;;;;;23.32;60.64;101192.31;4952293;28;20059;-69
2021/09/11 00:56:04;;;;;;;6.53;2.20;;;;;;;23.31;60.64;101195.94;4952608;28;20043;-68
2021/09/11 00:58:31;;;;;;;4.28;2.55;;;;;;;23.30;60.58;101194.19;4951118;28;20035;-68
2021/09/11 01:01:00;;;;;;;4.70;2.15;;;;;;;23.32;60.59;101195.91;4952382;28;20039;-68
2021/09/11 01:03:28;;;;;;;3.22;2.00;;;;;;;23.32;60.50;101197.72;4951630;28;20602;-68
2021/09/11 01:05:55;;;;;;;5.70;2.00;;;;;;;23.33;60.38;101199.47;4951994;28;20401;-68
2021/09/11 01:08:23;;;;;;;3.58;2.20;;;;;;;23.35;60.27;101187.75;4951907;28;20515;-68
2021/09/11 01:10:50;;;;;;;4.10;1.95;;;;;;;23.33;60.38;101188.72;4951500;28;20047;-68
2021/09/11 01:13:17;;;;;;;5.18;2.25;;;;;;;23.33;60.32;101191.41;4952817;28;20051;-68
2021/09/11 01:15:45;;;;;;;3.50;1.88;;;;;;;23.32;60.19;101184.25;4952138;28;20046;-68
2021/09/11 01:18:15;;;;;;;3.97;1.70;;;;;;;23.27;60.30;101184.38;4951348;28;20134;-68
2021/09/11 01:20:43;;;;;;;4.72;1.88;;;;;;;23.22;60.60;101188.16;4952146;28;20047;-68
2021/09/11 01:23:10;;;;;;;3.63;1.92;;;;;;;23.26;60.47;101181.72;4951459;28;20039;-68
2021/09/11 01:25:39;;;;;;;4.05;2.33;;;;;;;23.28;60.31;101185.28;4951548;28;20047;-68
2021/09/11 01:28:07;;;;;;;4.57;2.10;;;;;;;23.27;60.17;101180.81;4951833;28;20039;-68
2021/09/11 01:30:34;;;;;;;4.63;2.38;;;;;;;23.25;60.37;101182.66;4951456;28;20047;-69
2021/09/11 01:33:01;;;;;;;3.55;2.08;;;;;;;23.14;60.62;101180.28;4951742;28;20408;-68
2021/09/11 01:35:29;;;;;;;6.22;2.50;;;;;;;23.15;60.57;101178.47;4951589;28;20054;-68
2021/09/11 01:37:56;;;;;;;4.38;1.90;;;;;;;23.15;60.49;101183.88;4952524;28;20046;-68
2021/09/11 01:40:24;;;;;;;2.47;1.95;;;;;;;23.17;60.56;101172.09;4951807;28;20067;-68
2021/09/11 01:42:53;;;;;;;2.67;1.90;;;;;;;23.17;60.41;101182.88;4951443;28;20048;-68
2021/09/11 01:45:22;;;;;;;4.70;2.08;;;;;;;23.14;60.22;101177.59;4954520;28;20043;-68
2021/09/11 01:47:51;;;;;;;5.50;2.40;;;;;;;23.10;60.40;101178.63;4955492;28;20119;-68
2021/09/11 01:50:20;;;;;;;5.90;2.20;;;;;;;23.07;60.45;101181.41;4954526;28;20047;-68
2021/09/11 01:52:48;;;;;;;4.53;2.60;;;;;;;23.06;60.57;101174.25;4954186;28;20372;-68
2021/09/11 01:55:17;;;;;;;5.30;2.47;;;;;;;23.07;60.59;101175.13;4954721;28;20058;-68
2021/09/11 01:57:46;;;;;;;4.07;2.28;;;;;;;23.05;60.61;101172.47;4954891;28;20455;-68
2021/09/11 02:00:17;;;;;;;8.35;2.08;;;;;;;23.04;60.63;101165.31;4954345;28;20117;-68
2021/09/11 02:02:44;;;;;;;3.45;2.10;;;;;;;22.97;60.82;101170.00;4955177;28;20054;-69
2021/09/11 02:05:13;;;;;;;5.57;2.85;;;;;;;22.96;60.73;101167.38;4955298;28;20514;-68
2021/09/11 02:07:41;;;;;;;5.63;2.33;;;;;;;22.95;60.96;101177.25;4954954;28;20407;-68
2021/09/11 02:10:09;;;;;;;3.40;2.13;;;;;;;22.93;61.10;101173.72;4954636;28;20059;-68
2021/09/11 02:12:37;;;;;;;4.90;2.58;;;;;;;22.92;61.21;101171.06;4954564;28;20058;-68
2021/09/11 02:15:06;;;;;;;5.68;2.85;;;;;;;22.93;61.00;101168.31;4955123;28;20047;-69
2021/09/11 02:17:35;;;;;;;5.00;2.33;;;;;;;22.89;61.16;101174.75;4954942;28;20051;-68
2021/09/11 02:20:02;;;;;;;5.38;2.70;;;;;;;22.86;61.36;101163.16;4954459;28;20519;-68
2021/09/11 02:22:29;;;;;;;4.30;2.10;;;;;;;22.84;61.39;101168.56;4954163;28;20055;-69
2021/09/11 02:24:57;;;;;;;4.25;2.35;;;;;;;22.82;61.44;101172.25;4954921;28;20075;-68
2021/09/11 02:27:24;;;;;;;4.72;2.40;;;;;;;22.79;61.55;101164.25;4954807;28;20076;-68
2021/09/11 02:29:51;;;;;;;6.93;2.70;;;;;;;22.80;61.46;101166.91;4954453;28;20054;-68
2021/09/11 02:32:19;;;;;;;5.03;2.28;;;;;;;22.78;61.39;101162.47;4954404;28;20122;-68
2021/09/11 02:34:48;;;;;;;4.70;2.28;;;;;;;22.72;61.32;101158.13;4952865;28;20058;-68
2021/09/11 02:37:15;;;;;;;5.55;2.38;;;;;;;22.71;60.88;101160.88;4953447;28;20043;-68
2021/09/11 02:39:43;;;;;;;5.40;1.90;;;;;;;22.69;60.33;101169.00;4954443;28;20039;-68
2021/09/11 02:42:12;;;;;;;4.38;2.20;;;;;;;22.73;59.77;101175.19;4954047;28;20523;-68
2021/09/11 02:44:39;;;;;;;3.85;1.80;;;;;;;22.74;59.38;101167.09;4954006;28;20067;-68
2021/09/11 02:47:07;;;;;;;3.25;1.80;;;;;;;22.74;59.21;101166.19;4954042;28;20035;-68
2021/09/11 02:49:34;;;;;;;3.67;1.90;;;;;;;22.73;59.08;101169.81;4953967;28;20046;-68
2021/09/11 02:52:03;;;;;;;5.40;2.05;;;;;;;22.74;59.03;101171.59;4954101;28;20047;-68
2021/09/11 02:54:31;;;;;;;4.15;2.03;;;;;;;22.75;59.54;101168.84;4954791;28;20416;-68
2021/09/11 02:56:58;;;;;;;3.42;2.00;;;;;;;22.74;59.53;101167.09;4952479;28;20062;-68
2021/09/11 02:59:25;;;;;;;4.15;2.20;;;;;;;22.76;59.61;101162.56;4954752;28;20496;-68
2021/09/11 03:01:53;;;;;;;4.63;2.17;;;;;;;22.77;59.66;101163.44;4953958;28;20047;-68
2021/09/11 03:04:20;;;;;;;4.93;2.70;;;;;;;22.78;59.74;101170.56;4953249;28;20500;-68
2021/09/11 03:06:47;;;;;;;2.20;1.88;;;;;;;22.79;59.90;101173.22;4953753;28;20047;-68
2021/09/11 03:09:16;;;;;;;3.33;2.13;;;;;;;22.80;59.88;101163.34;4954043;28;20051;-68
2021/09/11 03:11:44;;;;;;;3.28;2.15;;;;;;;22.80;60.17;101166.03;4959820;28;20133;-68
2021/09/11 03:14:11;;;;;;;3.95;2.13;;;;;;;22.80;60.52;101169.59;4953618;28;20047;-69
2021/09/11 03:16:38;;;;;;;5.25;2.58;;;;;;;22.82;60.51;101175.84;4953087;28;20511;-68
2021/09/11 03:19:06;;;;;;;5.63;2.60;;;;;;;22.83;60.76;101171.34;4953604;28;20046;-68
2021/09/11 03:21:33;;;;;;;8.25;2.47;;;;;;;22.83;60.90;101169.53;4952302;28;20569;-68
2021/09/11 03:24:00;;;;;;;4.68;2.60;;;;;;;22.83;61.00;101168.66;4953824;28;20046;-68
2021/09/11 03:26:29;;;;;;;4.35;2.80;;;;;;;22.82;61.15;101174.94;4953612;28;20059;-68
2021/09/11 03:28:57;;;;;;;7.05;2.40;;;;;;;22.82;61.20;101175.84;4952933;28;20047;-68
2021/09/11 03:31:24;;;;;;;4.68;3.00;;;;;;;22.80;61.23;101166.03;4954087;28;20039;-68
2021/09/11 03:33:51;;;;;;;7.13;2.30;;;;;;;22.81;61.39;101165.09;4953492;28;20051;-68
2021/09/11 03:36:19;;;;;;;4.30;2.40;;;;;;;22.80;61.34;101155.25;4953940;28;20043;-68
2021/09/11 03:38:46;;;;;;;3.83;2.40;;;;;;;22.81;61.44;101160.59;4953818;28;20078;-68
2021/09/11 03:41:16;;;;;;;3.92;2.33;;;;;;;22.85;61.42;101164.06;4953506;28;20043;-69
2021/09/11 03:43:45;;;;;;;5.05;2.28;;;;;;;22.84;61.55;101156.94;4952549;28;20050;-68
2021/09/11 03:46:12;;;;;;;4.28;2.08;;;;;;;22.82;61.67;101156.09;4953706;28;20039;-69
2021/09/11 03:48:39;;;;;;;4.80;2.33;;;;;;;22.82;61.67;101154.28;4953991;28;20051;-69
2021/09/11 03:51:08;;;;;;;5.18;2.30;;;;;;;22.85;61.69;101159.56;4952960;28;20047;-68
2021/09/11 03:53:35;;;;;;;8.63;2.90;;;;;;;22.87;61.83;101155.03;4953483;28;20499;-69
2021/09/11 03:56:03;;;;;;;3.53;2.35;;;;;;;22.89;61.77;101163.09;4953343;28;20054;-68
2021/09/11 03:58:32;;;;;;;4.32;2.78;;;;;;;22.88;61.82;101164.00;4952629;28;20043;-69
2021/09/11 04:01:01;;;;;;;5.03;2.65;;;;;;;22.88;62.00;101164.88;4952573;28;20035;-68
2021/09/11 04:03:29;;;;;;;4.88;2.45;;;;;;;22.88;62.06;101162.19;4953302;28;20515;-68
2021/09/11 04:05:57;;;;;;;5.70;2.67;;;;;;;22.90;62.08;101167.53;4952916;28;20039;-68
2021/09/11 04:08:25;;;;;;;4.65;2.65;;;;;;;22.94;61.99;101169.22;4951907;28;20039;-68
2021/09/11 04:10:53;;;;;;;7.05;2.53;;;;;;;22.94;61.95;101171.91;4952862;28;20118;-68
2021/09/11 04:13:20;;;;;;;6.65;2.75;;;;;;;22.96;61.91;101173.63;4952868;28;20046;-68
2021/09/11 04:15:47;;;;;;;3.92;2.42;;;;;;;22.97;61.97;101164.59;4952979;28;20387;-68
2021/09/11 04:18:17;;;;;;;4.95;2.80;;;;;;;23.02;61.81;101168.06;4953112;28;20062;-68
2021/09/11 04:20:44;;;;;;;4.85;2.97;;;;;;;23.06;61.80;101160.78;4952710;28;20051;-68
2021/09/11 04:23:11;;;;;;;4.10;2.50;;;;;;;23.09;61.55;101158.00;4952677;28;20043;-68
2021/09/11 04:25:39;;;;;;;6.32;2.78;;;;;;;23.12;61.43;101174.06;4952872;28;20039;-68
2021/09/11 04:28:06;;;;;;;3.83;2.40;;;;;;;23.13;61.25;101175.81;4952416;28;20047;-69
2021/09/11 04:30:34;;;;;;;5.90;2.63;;;;;;;23.14;61.34;101164.13;4952366;28;20039;-68
2021/09/11 04:33:01;;;;;;;5.50;2.30;;;;;;;23.19;61.15;101174.75;4951676;28;20054;-69
2021/09/11 04:35:31;;;;;;;6.60;2.55;;;;;;;23.23;61.00;101171.06;4952398;28;20047;-68
2021/09/11 04:37:58;;;;;;;4.28;2.53;;;;;;;23.22;61.04;101170.19;4942756;28;20067;-68
2021/09/11 04:40:26;;;;;;;5.55;2.40;;;;;;;23.27;60.91;101175.41;4953080;28;20050;-69
2021/09/11 04:42:55;;;;;;;4.05;2.33;;;;;;;23.31;60.89;101172.56;4951746;28;20070;-68
2021/09/11 04:45:23;;;;;;;5.75;2.30;;;;;;;23.31;60.97;101174.38;4952460;28;20051;-69
2021/09/11 04:47:50;;;;;;;5.55;2.30;;;;;;;23.34;60.98;101172.50;4951851;28;20039;-68
2021/09/11 04:50:18;;;;;;;8.85;2.25;;;;;;;23.39;60.79;101170.53;4951735;28;20054;-68
2021/09/11 04:52:47;;;;;;;6.28;2.63;;;;;;;23.41;60.59;101171.38;4951955;28;20094;-68
2021/09/11 04:55:14;;;;;;;4.47;2.38;;;;;;;23.46;60.50;101171.22;4952045;28;20046;-68
2021/09/11 04:57:42;;;;;;;4.13;2.00;;;;;;;23.60;59.98;101181.63;4952540;28;20044;-69
2021/09/11 05:00:10;;;;;;;4.97;2.08;;;;;;;23.65;59.76;101174.25;4952294;28;20499;-69
2021/09/11 05:02:37;;;;;;;5.50;2.60;;;;;;;23.67;59.86;101173.28;4951100;28;20472;-68
2021/09/11 05:05:06;;;;;;;3.58;2.10;;;;;;;23.75;59.39;101173.06;4951520;28;20046;-68
2021/09/11 05:07:33;;;;;;;5.72;2.40;;;;;;;23.75;59.22;101167.66;4947677;28;20046;-68
2021/09/11 05:10:03;;;;;;;4.55;1.80;;;;;;;23.76;59.10;101162.19;4961678;28;20047;-68
2021/09/11 05:12:30;;;;;;;5.85;2.13;;;;;;;23.76;59.19;101162.19;4951782;28;20054;-68
2021/09/11 05:14:58;;;;;;;3.28;1.67;;;;;;;23.83;59.28;101168.28;4952546;28;20460;-68
2021/09/11 05:17:25;;;;;;;2.92;1.70;;;;;;;23.90;59.30;101160.84;4950692;28;20047;-68
2021/09/11 05:19:52;;;;;;;6.93;2.03;;;;;;;23.89;59.32;101168.09;4954901;28;20506;-68
2021/09/11 05:22:42;;;;;;;8.00;2.20;;;;;;;23.92;59.46;101173.38;5090757;27;20421;-68
2021/09/11 05:25:11;;;;;;;4.57;1.92;;;;;;;24.02;59.34;101173.97;5088228;28;20048;-67
2021/09/11 05:27:39;;;;;;;9.10;2.33;;;;;;;24.11;59.47;101170.94;5088113;28;20044;-66
2021/09/11 05:30:08;;;;;;;3.63;1.80;;;;;;;24.11;59.55;101162.84;5086137;28;20048;-68
2021/09/11 05:32:35;;;;;;;4.75;1.77;;;;;;;24.11;59.49;101165.53;5073981;28;20048;-67
2021/09/11 05:35:03;;;;;;;5.45;1.92;;;;;;;24.18;59.64;101170.69;5079660;28;20072;-67
2021/09/11 05:37:30;;;;;;;5.22;1.85;;;;;;;24.23;59.45;101170.56;5073350;28;20037;-67
2021/09/11 05:39:59;;;;;;;4.43;1.85;;;;;;;24.18;59.33;101177.91;5088133;28;20387;-67
2021/09/11 05:42:26;;;;;;;4.10;2.28;;;;;;;24.14;59.63;101168.16;5086908;28;20048;-67
2021/09/11 05:44:55;;;;;;;5.60;1.85;;;;;;;24.32;59.73;101174.75;5076035;28;20052;-67
2021/09/11 05:47:22;;;;;;;5.00;2.00;;;;;;;24.42;59.28;101177.06;5083231;28;20044;-67
2021/09/11 05:49:50;;;;;;;5.30;2.10;;;;;;;24.39;59.43;101179.91;5082122;28;20044;-67
2021/09/11 05:52:17;;;;;;;8.13;1.95;;;;;;;24.74;59.67;101170.56;5069488;28;20373;-68
2021/09/11 05:54:44;;;;;;;5.78;1.80;;;;;;;25.26;59.05;101161.41;5066846;28;20045;-68
2021/09/11 05:57:13;;;;;;;6.80;1.88;;;;;;;25.30;58.88;101165.75;5067275;28;20108;-67
2021/09/11 05:59:40;;;;;;;7.72;1.65;;;;;;;25.33;58.79;101176.47;5080031;28;20040;-67
2021/09/11 06:02:11;;;;;;;9.05;2.13;;;;;;;25.42;58.54;101165.25;5097101;28;20055;-68
2021/09/11 06:04:38;;;;;;;4.53;1.65;;;;;;;25.54;58.33;101165.72;5105940;28;20032;-67
2021/09/11 06:07:06;;;;;;;4.00;2.17;;;;;;;25.70;57.33;101180.44;5083098;28;20051;-67
2021/09/11 06:09:33;;;;;;;2.92;1.80;;;;;;;25.89;57.18;101177.84;5096274;28;20040;-68
2021/09/11 06:12:01;;;;;;;4.78;1.90;;;;;;;25.93;56.81;101169.53;5093465;28;20464;-67
2021/09/11 06:14:30;;;;;;;8.23;1.90;;;;;;;25.88;56.79;101171.56;5107194;28;20055;-67
2021/09/11 06:16:57;;;;;;;8.15;2.17;;;;;;;25.79;57.25;101170.13;5086994;28;20040;-68
2021/09/11 06:19:25;;;;;;;5.18;1.70;;;;;;;26.19;56.80;101163.91;5096285;28;20737;-68
2021/09/11 06:21:52;;;;;;;4.00;1.50;;;;;;;26.65;55.86;101166.50;5102757;28;20050;-67
2021/09/11 06:24:19;;;;;;;5.43;1.80;;;;;;;26.62;55.74;101172.94;5126921;28;20042;-68
2021/09/11 06:26:47;;;;;;;7.22;1.80;;;;;;;26.59;56.04;101175.75;5105671;28;20052;-67
2021/09/11 06:29:14;;;;;;;7.20;2.10;;;;;;;26.97;55.09;101176.81;5111258;28;20418;-67
2021/09/11 06:31:43;;;;;;;4.40;1.98;;;;;;;26.98;54.67;101182.13;5105782;28;20036;-69
2021/09/11 06:34:10;;;;;;;6.53;2.00;;;;;;;27.30;54.24;101168.94;5090226;28;20036;-68
2021/09/11 06:36:38;;;;;;;3.97;1.48;;;;;;;27.44;54.25;101182.69;5102702;28;20435;-68
2021/09/11 06:39:06;;;;;;;7.57;2.25;;;;;;;27.71;53.61;101183.25;5092649;28;20035;-68
2021/09/11 06:41:33;;;;;;;8.88;2.00;;;;;;;27.86;53.06;101176.19;5093577;28;20032;-69
2021/09/11 06:44:00;;;;;;;6.35;1.90;;;;;;;28.16;52.48;101187.41;5093459;28;20517;-68
2021/09/11 06:46:28;;;;;;;5.65;1.90;;;;;;;28.66;51.74;101184.78;5103743;28;20056;-68
2021/09/11 06:48:57;;;;;;;4.93;1.65;;;;;;;28.80;50.86;101183.13;5094590;28;20568;-68
2021/09/11 06:51:24;;;;;;;6.20;1.80;;;;;;;28.64;50.81;101179.41;5090819;28;20040;-69
2021/09/11 06:53:52;;;;;;;3.88;1.92;;;;;;;28.51;50.69;101195.47;5100564;28;20109;-69
2021/09/11 06:56:19;;;;;;;3.00;1.73;;;;;;;28.29;50.75;101192.09;5113348;28;20118;-69
2021/09/11 06:58:47;;;;;;;6.68;1.85;;;;;;;28.30;50.45;101188.44;5103799;28;20056;-69
2021/09/11 07:01:14;;;;;;;5.15;1.70;;;;;;;28.51;49.92;101186.44;5102253;28;20036;-69
2021/09/11 07:03:42;;;;;;;4.97;1.80;;;;;;;28.22;49.72;101192.53;5109516;28;20036;-69
2021/09/11 07:06:11;;;;;;;5.57;1.85;;;;;;;27.85;49.75;101185.28;5106742;28;20555;-69
2021/09/11 07:08:39;;;;;;;4.40;1.90;;;;;;;27.98;50.11;101190.03;5086292;28;20039;-68
2021/09/11 07:11:11;;;;;;;4.40;1.70;;;;;;;27.91;49.92;101206.69;5091856;28;20032;-69
2021/09/11 07:13:38;;;;;;;5.15;1.80;;;;;;;28.11;49.97;101195.72;5092386;28;20056;-68
2021/09/11 07:16:06;;;;;;;4.85;1.67;;;;;;;28.03;50.09;101195.22;5091620;28;20399;-69
2021/09/11 07:18:35;;;;;;;4.65;1.75;;;;;;;28.16;50.28;101204.53;5079879;28;20085;-69
2021/09/11 07:21:03;;;;;;;7.93;1.90;;;;;;;28.64;49.65;101175.81;5091797;28;20365;-68
2021/09/11 07:23:35;;;;;;;5.72;1.90;;;;;;;29.19;48.67;101179.19;5088199;28;20048;-69
2021/09/11 07:26:03;;;;;;;7.18;1.70;;;;;;;29.62;47.83;101183.13;5082100;28;20127;-69
2021/09/11 07:28:30;;;;;;;9.52;1.85;;;;;;;29.61;47.79;101184.97;5084885;28;20070;-69
2021/09/11 07:30:58;;;;;;;5.07;1.33;;;;;;;29.91;47.38;101185.06;5092182;28;20047;-69
2021/09/11 07:33:25;;;;;;;4.43;1.20;;;;;;;30.08;46.77;101178.66;5091468;28;20040;-69
2021/09/11 07:35:53;;;;;;;5.00;1.63;;;;;;;30.47;45.66;101183.56;5087327;28;20044;-69
2021/09/11 07:38:20;;;;;;;4.45;1.48;;;;;;;30.62;45.15;101188.13;5082776;28;20610;-69
2021/09/11 07:40:49;;;;;;;5.32;1.90;;;;;;;30.10;45.15;101183.06;5072295;28;20370;-69
2021/09/11 07:43:16;;;;;;;4.90;1.55;;;;;;;29.56;45.84;101178.03;5084173;28;20036;-69
2021/09/11 07:45:46;;;;;;;5.03;2.00;;;;;;;29.20;45.94;101180.97;5079085;28;20043;-69
2021/09/11 07:48:13;;;;;;;6.97;1.90;;;;;;;29.20;46.09;101173.69;5065458;28;20043;-69
2021/09/11 07:50:41;;;;;;;5.65;1.83;;;;;;;29.66;45.17;101174.72;5091017;28;20040;-69
2021/09/11 07:53:08;;;;;;;6.78;1.80;;;;;;;29.89;43.94;101165.22;5072205;28;20036;-69
2021/09/11 07:55:36;;;;;;;4.50;1.60;;;;;;;30.09;43.51;101170.41;5089830;28;20381;-68
2021/09/11 07:58:05;;;;;;;6.10;2.17;;;;;;;30.29;43.21;101162.88;5089967;28;20512;-68
2021/09/11 08:00:32;;;;;;;5.22;1.70;;;;;;;30.52;43.73;101167.88;5089280;28;20040;-68
2021/09/11 08:02:59;;;;;;;7.55;1.65;;;;;;;30.70;43.27;101163.13;5077782;28;20039;-68
2021/09/11 08:05:27;;;;;;;3.40;1.70;;;;;;;30.87;42.72;101171.13;5092171;28;20514;-68
2021/09/11 08:07:54;;;;;;;3.65;1.75;;;;;;;31.06;42.58;101181.81;5092024;28;20051;-68
2021/09/11 08:10:22;;;;;;;9.05;1.80;;;;;;;31.17;41.10;101188.34;5091648;28;20040;-68
2021/09/11 08:12:50;;;;;;;4.10;1.48;;;;;;;31.32;40.46;101175.56;5091814;28;20044;-68
2021/09/11 08:15:19;;;;;;;2.63;1.33;;;;;;;31.46;40.34;101180.13;5091896;28;20048;-68
2021/09/11 08:17:47;;;;;;;3.28;1.25;;;;;;;31.58;38.75;101191.13;5082697;28;20036;-68
2021/09/11 08:20:16;;;;;;;3.45;1.50;;;;;;;31.60;38.37;101196.53;5071344;28;20029;-69
2021/09/11 08:22:44;;;;;;;3.85;1.40;;;;;;;31.65;38.56;101195.25;5072332;28;20103;-68
2021/09/11 08:25:12;;;;;;;3.60;1.50;;;;;;;31.81;39.04;101192.41;5071156;28;20499;-68
2021/09/11 08:27:40;;;;;;;4.20;1.20;;;;;;;31.95;39.14;101195.09;5072590;28;20048;-68
2021/09/11 08:30:08;;;;;;;3.25;1.50;;;;;;;31.83;39.84;101200.50;5071141;28;20044;-68
2021/09/11 08:32:39;;;;;;;6.93;2.05;;;;;;;31.93;39.39;101190.69;5084572;28;20047;-68
2021/09/11 08:35:08;;;;;;;4.22;1.88;;;;;;;31.95;39.17;101195.09;5091068;28;20423;-68
2021/09/11 08:37:35;;;;;;;3.80;1.48;;;;;;;31.66;38.66;101199.75;5091671;28;20062;-68
2021/09/11 08:40:02;;;;;;;5.38;1.60;;;;;;;31.65;39.12;101187.06;5091154;28;20032;-68
2021/09/11 08:42:31;;;;;;;5.15;1.48;;;;;;;31.50;39.72;101184.44;5087545;28;20063;-68
2021/09/11 08:44:58;;;;;;;6.50;1.88;;;;;;;31.18;40.42;101175.56;5076065;28;20049;-68
2021/09/11 08:47:26;;;;;;;3.65;1.70;;;;;;;31.08;40.33;101174.41;5071023;28;20064;-68
2021/09/11 08:49:54;;;;;;;6.45;1.83;;;;;;;30.97;40.70;101163.28;5110531;28;20040;-68
2021/09/11 08:52:22;;;;;;;7.18;1.80;;;;;;;30.82;40.29;101174.16;5112566;27;20058;-68
2021/09/11 08:54:49;;;;;;;4.25;1.95;;;;;;;30.61;40.56;101171.88;5113321;27;20043;-69
2021/09/11 08:57:23;;;;;;;8.10;1.70;;;;;;;30.81;40.48;101163.34;5109707;28;20036;-68
2021/09/11 08:59:51;;;;;;;5.97;1.92;;;;;;;31.02;40.35;101172.91;5108232;28;20039;-69
2021/09/11 09:02:21;;;;;;;5.55;1.70;;;;;;;30.68;40.83;101170.53;5097115;28;20134;-68
2021/09/11 09:04:50;;;;;;;4.38;1.67;;;;;;;30.84;41.95;101176.81;5109727;28;20043;-69
2021/09/11 09:07:35;;;;;;;5.13;1.77;;;;;;;30.92;41.73;101173.59;5093814;28;20933;-69
2021/09/11 09:10:06;;;;;;;4.35;1.65;;;;;;;30.62;40.74;101177.22;5125473;27;20398;-68
2021/09/11 09:12:34;;;;;;;4.10;1.70;;;;;;;30.87;40.56;101173.88;5120899;27;20039;-68
2021/09/11 09:15:05;;;;;;;5.53;1.70;;;;;;;31.12;40.36;101170.50;5108467;28;20519;-67
2021/09/11 09:17:43;;;;;;;6.95;1.80;;;;;;;31.35;40.02;101158.13;5108843;28;20043;-68
2021/09/11 09:20:14;;;;;;;5.78;2.05;;;;;;;31.30;40.23;101157.56;5109463;28;20097;-69
2021/09/11 09:22:43;;;;;;;4.15;1.77;;;;;;;31.06;39.99;101162.69;5109171;28;20046;-69
2021/09/11 09:25:22;;;;;;;6.03;1.80;;;;;;;30.97;39.93;101161.41;5112396;28;20035;-68
2021/09/11 09:27:51;;;;;;;4.10;1.70;;;;;;;30.94;39.93;101160.72;5109028;28;20047;-68
2021/09/11 09:30:24;;;;;;;5.28;2.05;;;;;;;31.01;40.34;101154.78;5110148;28;20055;-67
2021/09/11 09:32:52;;;;;;;4.30;1.70;;;;;;;30.74;40.72;101157.38;5124110;28;20031;-68
2021/09/11 09:35:25;;;;;;;4.72;2.00;;;;;;;30.67;41.18;101156.00;5115678;28;20056;-68
2021/09/11 09:38:11;;;;;;;5.57;1.90;;;;;;;30.68;40.51;101143.25;5114779;28;20557;-67
2021/09/11 09:40:42;;;;;;;6.05;2.35;;;;;;;30.40;40.83;101153.09;5121674;28;20043;-68
2021/09/11 09:43:11;;;;;;;5.03;1.67;;;;;;;30.45;40.85;101158.28;5116769;28;20528;-68
2021/09/11 09:45:39;;;;;;;5.10;2.13;;;;;;;30.63;41.11;101135.38;5112085;28;20043;-67
2021/09/11 09:48:10;;;;;;;3.50;1.70;;;;;;;30.47;41.07;101148.16;5110436;28;20032;-68
2021/09/11 09:50:39;;;;;;;4.68;2.20;;;;;;;30.30;41.11;101145.56;5123134;28;20703;-67
2021/09/11 09:53:11;;;;;;;7.45;2.38;;;;;;;30.23;41.39;101152.38;5130620;28;20490;-66
2021/09/11 09:55:39;;;;;;;4.45;2.03;;;;;;;30.26;41.44;101146.75;5130065;28;20468;-67
2021/09/11 09:58:07;;;;;;;4.75;2.20;;;;;;;30.14;41.75;101155.63;5120238;28;20115;-67
2021/09/11 10:00:34;;;;;;;8.55;2.40;;;;;;;30.20;42.16;101139.78;5130028;28;20042;-66
2021/09/11 10:03:02;;;;;;;6.82;2.05;;;;;;;30.14;42.00;101144.72;5128722;28;20039;-66
2021/09/11 10:05:31;;;;;;;3.55;2.20;;;;;;;30.20;42.10;101149.81;5124220;28;20050;-68
2021/09/11 10:08:06;;;;;;;3.75;1.90;;;;;;;30.42;41.97;101142.97;5111310;28;20043;-68
2021/09/11 10:10:37;;;;;;;5.20;2.03;;;;;;;30.53;42.08;101139.63;5113680;28;20089;-69
2021/09/11 10:13:09;;;;;;;7.60;2.20;;;;;;;30.62;41.75;101130.88;5114159;28;20419;-68
2021/09/11 10:15:48;;;;;;;5.72;1.98;;;;;;;30.54;41.31;101138.66;5114446;27;20494;-69
2021/09/11 10:18:44;;;;;;;7.63;2.17;;;;;;;30.55;41.64;101121.34;5113370;27;20032;-75
2021/09/11 10:21:35;;;;;;;9.40;1.98;;;;;;;30.56;42.03;101130.41;5060225;27;20065;-68
2021/09/11 10:24:34;;;;;;;6.53;2.30;;;;;;;30.52;41.97;101126.13;5110336;27;20047;-69
2021/09/11 10:27:09;;;;;;;5.07;2.10;;;;;;;30.33;42.29;101127.19;5113135;28;20043;-69
2021/09/11 10:30:04;;;;;;;4.95;2.00;;;;;;;30.23;42.58;101120.56;5113911;27;20035;-69
2021/09/11 10:32:39;;;;;;;2.92;1.60;;;;;;;30.37;42.76;101127.88;5130306;27;20043;-69
2021/09/11 10:35:10;;;;;;;6.65;2.00;;;;;;;30.43;42.50;101112.03;5127868;27;20035;-68
2021/09/11 10:37:43;;;;;;;4.40;2.00;;;;;;;30.49;41.94;101119.88;5112969;28;20599;-69
2021/09/11 10:40:28;;;;;;;3.50;1.92;;;;;;;30.52;41.52;101117.94;5113427;28;20050;-69
2021/09/11 10:43:11;;;;;;;6.75;2.00;;;;;;;30.65;41.55;101118.94;5118380;27;20487;-69
2021/09/11 10:45:39;;;;;;;5.85;2.13;;;;;;;30.59;41.24;101116.59;5114517;27;20525;-69
2021/09/11 10:48:07;;;;;;;4.60;1.95;;;;;;;30.57;41.27;101127.59;5123320;27;20470;-69
2021/09/11 10:50:39;;;;;;;6.75;2.28;;;;;;;30.53;41.28;101112.38;5127018;27;20499;-69
2021/09/11 10:53:20;;;;;;;4.75;2.08;;;;;;;30.51;41.93;101122.50;5126491;27;20039;-69
2021/09/11 10:55:48;;;;;;;6.38;2.10;;;;;;;30.72;41.87;101123.88;5116556;27;20040;-69
2021/09/11 10:58:25;;;;;;;4.80;1.65;;;;;;;31.01;41.61;101121.16;5112240;27;20661;-68
2021/09/11 11:00:59;;;;;;;3.78;1.90;;;;;;;31.34;41.44;101127.22;5110707;27;20046;-68
2021/09/11 11:03:26;;;;;;;5.10;2.00;;;;;;;31.55;40.96;101122.22;5117227;27;20031;-67
2021/09/11 11:06:01;;;;;;;4.68;2.10;;;;;;;31.59;40.26;101110.09;5114368;27;20047;-67
2021/09/11 11:08:30;;;;;;;5.40;2.00;;;;;;;31.70;40.38;101117.63;5116146;27;20089;-67
2021/09/11 11:10:58;;;;;;;6.20;2.35;;;;;;;31.85;39.55;101114.72;5124169;27;20139;-66
2021/09/11 11:13:27;;;;;;;4.75;1.92;;;;;;;32.05;39.16;101116.97;5120294;27;20039;-67
2021/09/11 11:15:55;;;;;;;4.25;2.10;;;;;;;32.29;38.95;101113.59;5131436;27;20050;-70
2021/09/11 11:18:22;;;;;;;5.10;2.00;;;;;;;32.45;38.56;101114.25;5130543;27;20139;-70
2021/09/11 11:20:50;;;;;;;4.60;2.25;;;;;;;32.34;39.33;101119.59;5089594;27;20425;-69
2021/09/11 11:23:18;;;;;;;3.67;1.80;;;;;;;32.49;38.94;101109.47;5125970;27;20050;-70
2021/09/11 11:25:45;;;;;;;4.07;2.17;;;;;;;32.55;38.37;101112.63;5131267;27;20588;-69
2021/09/11 11:28:15;;;;;;;6.05;2.08;;;;;;;32.81;37.53;101122.63;5132323;27;20032;-68
2021/09/11 11:30:44;;;;;;;3.78;1.90;;;;;;;32.81;36.94;101089.81;5132181;27;20039;-68
2021/09/11 11:33:12;;;;;;;5.00;1.98;;;;;;;32.91;36.96;101127.44;5119471;27;20502;-68